sensor_id;sensor_type;location;lat;lon;timestamp;temperature;humidity
15543;DHT22;7873;52.230;12.856;2022-11-12T00:01:15;25.00;43.90
15543;DHT22;7873;52.230;12.856;2022-11-12T00:03:43;25.00;44.00
15543;DHT22;7873;52.230;12.856;2022-11-12T00:06:10;24.90;43.80
15543;DHT22;7873;52.230;12.856;2022-11-12T00:08:37;24.90;43.90
15543;DHT22;7873;52.230;12.856;2022-11-12T00:11:03;24.90;44.00
15543;DHT22;7873;52.230;12.856;2022-11-12T00:13:31;24.90;44.00
15543;DHT22;7873;52.230;12.856;2022-11-12T00:15:58;24.80;44.00
15543;DHT22;7873;52.230;12.856;2022-11-12T00:18:25;24.80;44.10
15543;DHT22;7873;52.230;12.856;2022-11-12T00:20:53;24.80;44.10
15543;DHT22;7873;52.230;12.856;2022-11-12T00:23:19;24.80;44.10
15543;DHT22;7873;52.230;12.856;2022-11-12T00:25:46;24.80;44.10
15543;DHT22;7873;52.230;12.856;2022-11-12T00:28:13;24.80;44.10
15543;DHT22;7873;52.230;12.856;2022-11-12T00:30:39;24.80;44.10
15543;DHT22;7873;52.230;12.856;2022-11-12T00:33:06;24.80;44.00
15543;DHT22;7873;52.230;12.856;2022-11-12T00:35:33;24.80;44.10
15543;DHT22;7873;52.230;12.856;2022-11-12T00:38:01;24.70;44.00
15543;DHT22;7873;52.230;12.856;2022-11-12T00:40:28;24.80;44.10
15543;DHT22;7873;52.230;12.856;2022-11-12T00:42:55;24.70;44.20
15543;DHT22;7873;52.230;12.856;2022-11-12T00:45:21;24.60;44.10
15543;DHT22;7873;52.230;12.856;2022-11-12T00:47:48;24.70;44.20
15543;DHT22;7873;52.230;12.856;2022-11-12T00:50:15;24.60;44.20
15543;DHT22;7873;52.230;12.856;2022-11-12T00:52:42;24.60;44.20
15543;DHT22;7873;52.230;12.856;2022-11-12T00:55:10;24.60;44.40
15543;DHT22;7873;52.230;12.856;2022-11-12T00:57:37;24.60;44.30
15543;DHT22;7873;52.230;12.856;2022-11-12T01:00:04;24.50;44.30
15543;DHT22;7873;52.230;12.856;2022-11-12T01:02:32;24.50;44.30
15543;DHT22;7873;52.230;12.856;2022-11-12T01:04:59;24.50;44.30
15543;DHT22;7873;52.230;12.856;2022-11-12T01:07:26;24.50;44.50
15543;DHT22;7873;52.230;12.856;2022-11-12T01:09:53;24.40;44.40
15543;DHT22;7873;52.230;12.856;2022-11-12T01:12:21;24.40;44.40
15543;DHT22;7873;52.230;12.856;2022-11-12T01:14:47;24.40;44.40
15543;DHT22;7873;52.230;12.856;2022-11-12T01:17:14;24.40;44.40
15543;DHT22;7873;52.230;12.856;2022-11-12T01:19:41;24.40;44.40
15543;DHT22;7873;52.230;12.856;2022-11-12T01:22:07;24.40;44.50
15543;DHT22;7873;52.230;12.856;2022-11-12T01:24:34;24.30;44.60
15543;DHT22;7873;52.230;12.856;2022-11-12T01:27:01;24.30;44.50
15543;DHT22;7873;52.230;12.856;2022-11-12T01:29:29;24.30;44.70
15543;DHT22;7873;52.230;12.856;2022-11-12T01:31:55;24.30;44.60
15543;DHT22;7873;52.230;12.856;2022-11-12T01:34:22;24.30;44.40
15543;DHT22;7873;52.230;12.856;2022-11-12T01:36:49;24.30;44.50
15543;DHT22;7873;52.230;12.856;2022-11-12T01:39:15;24.30;44.70
15543;DHT22;7873;52.230;12.856;2022-11-12T01:41:42;24.20;44.60
15543;DHT22;7873;52.230;12.856;2022-11-12T01:44:13;24.20;44.70
15543;DHT22;7873;52.230;12.856;2022-11-12T01:46:45;24.20;44.60
15543;DHT22;7873;52.230;12.856;2022-11-12T01:49:18;24.20;44.70
15543;DHT22;7873;52.230;12.856;2022-11-12T01:51:49;24.20;44.70
15543;DHT22;7873;52.230;12.856;2022-11-12T01:54:19;24.20;44.60
15543;DHT22;7873;52.230;12.856;2022-11-12T01:56:47;24.20;44.50
15543;DHT22;7873;52.230;12.856;2022-11-12T01:59:17;24.10;44.70
15543;DHT22;7873;52.230;12.856;2022-11-12T02:01:48;24.10;44.90
15543;DHT22;7873;52.230;12.856;2022-11-12T02:04:15;24.10;44.80
15543;DHT22;7873;52.230;12.856;2022-11-12T02:06:42;24.00;44.80
15543;DHT22;7873;52.230;12.856;2022-11-12T02:09:11;24.00;44.90
15543;DHT22;7873;52.230;12.856;2022-11-12T02:11:39;24.00;44.90
15543;DHT22;7873;52.230;12.856;2022-11-12T02:14:05;24.00;44.90
15543;DHT22;7873;52.230;12.856;2022-11-12T02:16:33;24.00;44.70
15543;DHT22;7873;52.230;12.856;2022-11-12T02:19:03;24.00;44.80
15543;DHT22;7873;52.230;12.856;2022-11-12T02:21:32;23.90;44.80
15543;DHT22;7873;52.230;12.856;2022-11-12T02:24:00;23.90;44.80
15543;DHT22;7873;52.230;12.856;2022-11-12T02:26:30;23.90;44.70
15543;DHT22;7873;52.230;12.856;2022-11-12T02:28:59;23.90;44.90
15543;DHT22;7873;52.230;12.856;2022-11-12T02:31:26;23.90;45.00
15543;DHT22;7873;52.230;12.856;2022-11-12T02:33:53;23.90;44.90
15543;DHT22;7873;52.230;12.856;2022-11-12T02:36:20;23.80;45.00
15543;DHT22;7873;52.230;12.856;2022-11-12T02:38:49;23.80;45.00
15543;DHT22;7873;52.230;12.856;2022-11-12T02:41:16;23.80;45.20
15543;DHT22;7873;52.230;12.856;2022-11-12T02:43:43;23.80;45.10
15543;DHT22;7873;52.230;12.856;2022-11-12T02:46:09;23.70;45.10
15543;DHT22;7873;52.230;12.856;2022-11-12T02:48:36;23.70;45.10
15543;DHT22;7873;52.230;12.856;2022-11-12T02:51:03;23.70;45.20
15543;DHT22;7873;52.230;12.856;2022-11-12T02:53:31;23.60;45.40
15543;DHT22;7873;52.230;12.856;2022-11-12T02:55:59;23.60;45.40
15543;DHT22;7873;52.230;12.856;2022-11-12T02:58:26;23.60;45.20
15543;DHT22;7873;52.230;12.856;2022-11-12T03:00:53;23.60;45.10
15543;DHT22;7873;52.230;12.856;2022-11-12T03:03:21;23.60;45.20
15543;DHT22;7873;52.230;12.856;2022-11-12T03:05:53;23.70;45.10
15543;DHT22;7873;52.230;12.856;2022-11-12T03:08:21;23.60;45.10
15543;DHT22;7873;52.230;12.856;2022-11-12T03:10:48;23.60;45.20
15543;DHT22;7873;52.230;12.856;2022-11-12T03:13:16;23.50;45.30
15543;DHT22;7873;52.230;12.856;2022-11-12T03:15:43;23.50;45.20
15543;DHT22;7873;52.230;12.856;2022-11-12T03:18:10;23.40;45.40
15543;DHT22;7873;52.230;12.856;2022-11-12T03:20:37;23.50;45.40
15543;DHT22;7873;52.230;12.856;2022-11-12T03:23:05;23.50;45.30
15543;DHT22;7873;52.230;12.856;2022-11-12T03:25:33;23.50;45.20
15543;DHT22;7873;52.230;12.856;2022-11-12T03:28:01;23.50;45.20
15543;DHT22;7873;52.230;12.856;2022-11-12T03:30:32;23.40;45.20
15543;DHT22;7873;52.230;12.856;2022-11-12T03:33:00;23.40;45.20
15543;DHT22;7873;52.230;12.856;2022-11-12T03:35:27;23.50;45.30
15543;DHT22;7873;52.230;12.856;2022-11-12T03:37:54;23.40;45.20
15543;DHT22;7873;52.230;12.856;2022-11-12T03:40:20;23.40;45.30
15543;DHT22;7873;52.230;12.856;2022-11-12T03:42:48;23.40;45.40
15543;DHT22;7873;52.230;12.856;2022-11-12T03:45:16;23.40;45.20
15543;DHT22;7873;52.230;12.856;2022-11-12T03:47:46;23.40;45.30
15543;DHT22;7873;52.230;12.856;2022-11-12T03:50:14;23.40;45.30
15543;DHT22;7873;52.230;12.856;2022-11-12T03:52:43;23.40;45.30
15543;DHT22;7873;52.230;12.856;2022-11-12T03:55:10;23.30;45.40
15543;DHT22;7873;52.230;12.856;2022-11-12T03:57:37;23.40;45.40
15543;DHT22;7873;52.230;12.856;2022-11-12T04:00:05;23.30;45.20
15543;DHT22;7873;52.230;12.856;2022-11-12T04:02:32;23.20;45.40
15543;DHT22;7873;52.230;12.856;2022-11-12T04:05:00;23.30;45.30
15543;DHT22;7873;52.230;12.856;2022-11-12T04:07:47;23.20;45.40
15543;DHT22;7873;52.230;12.856;2022-11-12T04:10:32;23.20;45.40
15543;DHT22;7873;52.230;12.856;2022-11-12T04:12:59;23.20;45.20
15543;DHT22;7873;52.230;12.856;2022-11-12T04:15:43;23.20;44.80
15543;DHT22;7873;52.230;12.856;2022-11-12T04:18:30;23.20;44.80
15543;DHT22;7873;52.230;12.856;2022-11-12T04:21:15;23.10;44.90
15543;DHT22;7873;52.230;12.856;2022-11-12T04:24:14;23.10;44.90
15543;DHT22;7873;52.230;12.856;2022-11-12T04:26:55;23.20;45.10
15543;DHT22;7873;52.230;12.856;2022-11-12T04:29:22;23.10;42.90
15543;DHT22;7873;52.230;12.856;2022-11-12T04:32:06;23.20;43.40
15543;DHT22;7873;52.230;12.856;2022-11-12T04:34:33;23.10;42.70
15543;DHT22;7873;52.230;12.856;2022-11-12T04:37:02;23.10;42.20
15543;DHT22;7873;52.230;12.856;2022-11-12T04:39:29;23.30;41.70
15543;DHT22;7873;52.230;12.856;2022-11-12T04:41:56;23.40;40.80
15543;DHT22;7873;52.230;12.856;2022-11-12T04:44:41;23.50;41.60
15543;DHT22;7873;52.230;12.856;2022-11-12T04:47:34;23.60;41.30
15543;DHT22;7873;52.230;12.856;2022-11-12T04:50:03;23.60;41.00
15543;DHT22;7873;52.230;12.856;2022-11-12T04:52:33;23.70;41.60
15543;DHT22;7873;52.230;12.856;2022-11-12T04:55:00;23.80;41.90
15543;DHT22;7873;52.230;12.856;2022-11-12T04:57:27;23.80;41.20
15543;DHT22;7873;52.230;12.856;2022-11-12T04:59:53;24.00;41.40
15543;DHT22;7873;52.230;12.856;2022-11-12T05:02:20;24.00;41.80
15543;DHT22;7873;52.230;12.856;2022-11-12T05:04:47;24.10;42.40
15543;DHT22;7873;52.230;12.856;2022-11-12T05:07:14;24.30;42.50
15543;DHT22;7873;52.230;12.856;2022-11-12T05:09:42;24.50;42.40
15543;DHT22;7873;52.230;12.856;2022-11-12T05:12:09;24.70;41.90
15543;DHT22;7873;52.230;12.856;2022-11-12T05:14:36;24.80;41.90
15543;DHT22;7873;52.230;12.856;2022-11-12T05:17:02;24.80;42.30
15543;DHT22;7873;52.230;12.856;2022-11-12T05:19:30;24.90;40.40
15543;DHT22;7873;52.230;12.856;2022-11-12T05:21:57;24.90;40.50
15543;DHT22;7873;52.230;12.856;2022-11-12T05:24:31;24.90;40.70
15543;DHT22;7873;52.230;12.856;2022-11-12T05:27:04;25.00;38.80
15543;DHT22;7873;52.230;12.856;2022-11-12T05:29:32;25.10;39.20
15543;DHT22;7873;52.230;12.856;2022-11-12T05:31:59;25.30;39.70
15543;DHT22;7873;52.230;12.856;2022-11-12T05:34:25;25.60;38.70
15543;DHT22;7873;52.230;12.856;2022-11-12T05:36:52;25.80;40.30
15543;DHT22;7873;52.230;12.856;2022-11-12T05:39:19;26.00;39.80
15543;DHT22;7873;52.230;12.856;2022-11-12T05:41:46;26.30;39.30
15543;DHT22;7873;52.230;12.856;2022-11-12T05:44:14;26.50;38.60
15543;DHT22;7873;52.230;12.856;2022-11-12T05:46:41;26.70;38.40
15543;DHT22;7873;52.230;12.856;2022-11-12T05:49:08;26.70;38.10
15543;DHT22;7873;52.230;12.856;2022-11-12T05:51:35;26.40;36.50
15543;DHT22;7873;52.230;12.856;2022-11-12T05:54:02;26.00;35.20
15543;DHT22;7873;52.230;12.856;2022-11-12T05:56:29;26.00;35.10
15543;DHT22;7873;52.230;12.856;2022-11-12T05:58:56;25.90;34.90
15543;DHT22;7873;52.230;12.856;2022-11-12T06:01:24;25.90;36.10
15543;DHT22;7873;52.230;12.856;2022-11-12T06:03:51;26.00;35.90
15543;DHT22;7873;52.230;12.856;2022-11-12T06:06:17;26.20;36.30
15543;DHT22;7873;52.230;12.856;2022-11-12T06:08:44;26.20;35.40
15543;DHT22;7873;52.230;12.856;2022-11-12T06:11:11;26.30;36.00
15543;DHT22;7873;52.230;12.856;2022-11-12T06:13:38;26.40;36.70
15543;DHT22;7873;52.230;12.856;2022-11-12T06:16:05;26.60;35.60
15543;DHT22;7873;52.230;12.856;2022-11-12T06:18:33;26.70;36.30
15543;DHT22;7873;52.230;12.856;2022-11-12T06:21:00;26.70;34.70
15543;DHT22;7873;52.230;12.856;2022-11-12T06:23:48;26.70;34.30
15543;DHT22;7873;52.230;12.856;2022-11-12T06:26:16;26.90;34.40
15543;DHT22;7873;52.230;12.856;2022-11-12T06:28:43;27.00;33.90
15543;DHT22;7873;52.230;12.856;2022-11-12T06:31:09;27.10;34.00
15543;DHT22;7873;52.230;12.856;2022-11-12T06:33:37;26.90;34.20
15543;DHT22;7873;52.230;12.856;2022-11-12T06:36:05;26.90;34.50
15543;DHT22;7873;52.230;12.856;2022-11-12T06:38:32;27.10;34.70
15543;DHT22;7873;52.230;12.856;2022-11-12T06:41:00;27.10;35.30
15543;DHT22;7873;52.230;12.856;2022-11-12T06:43:27;27.30;35.20
15543;DHT22;7873;52.230;12.856;2022-11-12T06:45:57;27.40;34.80
15543;DHT22;7873;52.230;12.856;2022-11-12T06:48:25;27.60;34.90
15543;DHT22;7873;52.230;12.856;2022-11-12T06:50:54;27.90;35.10
15543;DHT22;7873;52.230;12.856;2022-11-12T06:53:21;28.10;33.90
15543;DHT22;7873;52.230;12.856;2022-11-12T06:55:48;28.20;34.20
15543;DHT22;7873;52.230;12.856;2022-11-12T06:58:14;28.40;33.30
15543;DHT22;7873;52.230;12.856;2022-11-12T07:00:41;28.40;32.50
15543;DHT22;7873;52.230;12.856;2022-11-12T07:03:08;27.70;31.40
15543;DHT22;7873;52.230;12.856;2022-11-12T07:05:35;27.70;32.30
15543;DHT22;7873;52.230;12.856;2022-11-12T07:08:04;27.80;32.70
15543;DHT22;7873;52.230;12.856;2022-11-12T07:10:31;28.10;33.30
15543;DHT22;7873;52.230;12.856;2022-11-12T07:12:58;28.30;33.60
15543;DHT22;7873;52.230;12.856;2022-11-12T07:15:25;28.50;33.50
15543;DHT22;7873;52.230;12.856;2022-11-12T07:17:51;28.70;33.50
15543;DHT22;7873;52.230;12.856;2022-11-12T07:20:18;28.80;33.10
15543;DHT22;7873;52.230;12.856;2022-11-12T07:22:45;28.90;32.70
15543;DHT22;7873;52.230;12.856;2022-11-12T07:25:13;29.10;33.00
15543;DHT22;7873;52.230;12.856;2022-11-12T07:27:40;28.90;32.80
15543;DHT22;7873;52.230;12.856;2022-11-12T07:30:07;28.70;33.10
15543;DHT22;7873;52.230;12.856;2022-11-12T07:32:34;28.40;31.30
15543;DHT22;7873;52.230;12.856;2022-11-12T07:35:01;28.50;31.90
15543;DHT22;7873;52.230;12.856;2022-11-12T07:37:28;28.60;31.60
15543;DHT22;7873;52.230;12.856;2022-11-12T07:39:54;28.60;32.10
15543;DHT22;7873;52.230;12.856;2022-11-12T07:42:22;28.70;32.00
15543;DHT22;7873;52.230;12.856;2022-11-12T07:44:50;28.70;31.60
15543;DHT22;7873;52.230;12.856;2022-11-12T07:47:16;28.70;31.70
15543;DHT22;7873;52.230;12.856;2022-11-12T07:49:43;28.70;31.30
15543;DHT22;7873;52.230;12.856;2022-11-12T07:52:10;28.80;31.30
15543;DHT22;7873;52.230;12.856;2022-11-12T07:54:36;28.80;30.90
15543;DHT22;7873;52.230;12.856;2022-11-12T07:57:03;28.90;31.80
15543;DHT22;7873;52.230;12.856;2022-11-12T07:59:31;28.90;31.50
15543;DHT22;7873;52.230;12.856;2022-11-12T08:01:58;29.10;31.60
15543;DHT22;7873;52.230;12.856;2022-11-12T08:04:24;29.20;31.30
15543;DHT22;7873;52.230;12.856;2022-11-12T08:06:51;29.30;30.80
15543;DHT22;7873;52.230;12.856;2022-11-12T08:09:18;29.20;30.70
15543;DHT22;7873;52.230;12.856;2022-11-12T08:11:44;29.10;31.60
15543;DHT22;7873;52.230;12.856;2022-11-12T08:14:11;29.40;31.90
15543;DHT22;7873;52.230;12.856;2022-11-12T08:16:39;29.50;32.00
15543;DHT22;7873;52.230;12.856;2022-11-12T08:19:06;29.70;32.20
15543;DHT22;7873;52.230;12.856;2022-11-12T08:21:32;29.80;30.50
15543;DHT22;7873;52.230;12.856;2022-11-12T08:24:00;29.60;30.00
15543;DHT22;7873;52.230;12.856;2022-11-12T08:26:27;29.40;30.00
15543;DHT22;7873;52.230;12.856;2022-11-12T08:28:53;29.30;30.60
15543;DHT22;7873;52.230;12.856;2022-11-12T08:31:20;29.10;30.70
15543;DHT22;7873;52.230;12.856;2022-11-12T08:33:49;29.10;30.90
15543;DHT22;7873;52.230;12.856;2022-11-12T08:36:16;28.70;30.70
15543;DHT22;7873;52.230;12.856;2022-11-12T08:38:44;28.80;30.50
15543;DHT22;7873;52.230;12.856;2022-11-12T08:41:11;28.50;28.40
15543;DHT22;7873;52.230;12.856;2022-11-12T08:43:40;28.20;29.60
15543;DHT22;7873;52.230;12.856;2022-11-12T08:46:07;28.10;30.10
15543;DHT22;7873;52.230;12.856;2022-11-12T08:48:34;27.80;30.90
15543;DHT22;7873;52.230;12.856;2022-11-12T08:51:03;27.90;31.80
15543;DHT22;7873;52.230;12.856;2022-11-12T08:53:30;27.80;31.60
15543;DHT22;7873;52.230;12.856;2022-11-12T08:56:06;28.00;32.20
15543;DHT22;7873;52.230;12.856;2022-11-12T08:58:35;28.20;32.10
15543;DHT22;7873;52.230;12.856;2022-11-12T09:01:05;28.10;32.30
15543;DHT22;7873;52.230;12.856;2022-11-12T09:03:40;27.90;32.10
15543;DHT22;7873;52.230;12.856;2022-11-12T09:06:31;27.80;32.70
15543;DHT22;7873;52.230;12.856;2022-11-12T09:08:57;27.70;33.40
15543;DHT22;7873;52.230;12.856;2022-11-12T09:11:24;27.50;33.80
15543;DHT22;7873;52.230;12.856;2022-11-12T09:13:51;27.40;34.10
15543;DHT22;7873;52.230;12.856;2022-11-12T09:16:18;27.40;34.40
15543;DHT22;7873;52.230;12.856;2022-11-12T09:18:46;27.30;34.70
15543;DHT22;7873;52.230;12.856;2022-11-12T09:21:13;27.20;35.00
15543;DHT22;7873;52.230;12.856;2022-11-12T09:23:40;27.10;35.20
15543;DHT22;7873;52.230;12.856;2022-11-12T09:26:07;27.00;35.40
15543;DHT22;7873;52.230;12.856;2022-11-12T09:28:34;27.00;35.60
15543;DHT22;7873;52.230;12.856;2022-11-12T09:31:01;26.90;35.80
15543;DHT22;7873;52.230;12.856;2022-11-12T09:33:28;26.90;36.00
15543;DHT22;7873;52.230;12.856;2022-11-12T09:35:58;26.80;36.20
15543;DHT22;7873;52.230;12.856;2022-11-12T09:38:26;26.70;36.50
15543;DHT22;7873;52.230;12.856;2022-11-12T09:43:49;26.70;36.70
15543;DHT22;7873;52.230;12.856;2022-11-12T09:46:25;26.60;37.00
15543;DHT22;7873;52.230;12.856;2022-11-12T09:48:58;26.60;37.00
15543;DHT22;7873;52.230;12.856;2022-11-12T09:51:31;26.50;37.10
15543;DHT22;7873;52.230;12.856;2022-11-12T09:54:01;26.50;37.20
15543;DHT22;7873;52.230;12.856;2022-11-12T09:56:33;26.50;37.30
15543;DHT22;7873;52.230;12.856;2022-11-12T09:59:00;26.40;37.30
15543;DHT22;7873;52.230;12.856;2022-11-12T10:01:33;26.40;37.60
15543;DHT22;7873;52.230;12.856;2022-11-12T10:04:13;26.50;37.70
15543;DHT22;7873;52.230;12.856;2022-11-12T10:06:54;26.40;37.60
15543;DHT22;7873;52.230;12.856;2022-11-12T10:09:27;26.50;37.70
15543;DHT22;7873;52.230;12.856;2022-11-12T10:12:04;26.40;37.50
15543;DHT22;7873;52.230;12.856;2022-11-12T10:15:02;26.40;37.90
15543;DHT22;7873;52.230;12.856;2022-11-12T10:18:01;26.40;37.80
15543;DHT22;7873;52.230;12.856;2022-11-12T10:20:34;26.40;37.90
15543;DHT22;7873;52.230;12.856;2022-11-12T10:23:10;26.40;38.00
15543;DHT22;7873;52.230;12.856;2022-11-12T10:25:43;26.40;38.00
15543;DHT22;7873;52.230;12.856;2022-11-12T10:28:15;26.40;38.20
15543;DHT22;7873;52.230;12.856;2022-11-12T10:30:51;26.40;38.40
15543;DHT22;7873;52.230;12.856;2022-11-12T10:33:19;26.30;38.30
15543;DHT22;7873;52.230;12.856;2022-11-12T10:35:45;26.30;38.50
15543;DHT22;7873;52.230;12.856;2022-11-12T10:38:13;26.20;38.50
15543;DHT22;7873;52.230;12.856;2022-11-12T10:40:43;26.20;38.60
15543;DHT22;7873;52.230;12.856;2022-11-12T10:43:20;26.10;38.80
15543;DHT22;7873;52.230;12.856;2022-11-12T10:45:49;26.10;38.70
15543;DHT22;7873;52.230;12.856;2022-11-12T10:48:20;26.00;38.90
15543;DHT22;7873;52.230;12.856;2022-11-12T10:50:48;26.00;39.70
15543;DHT22;7873;52.230;12.856;2022-11-12T10:53:27;26.00;39.00
15543;DHT22;7873;52.230;12.856;2022-11-12T10:55:57;25.80;39.20
15543;DHT22;7873;52.230;12.856;2022-11-12T10:58:26;25.90;39.30
15543;DHT22;7873;52.230;12.856;2022-11-12T11:00:55;25.80;39.40
15543;DHT22;7873;52.230;12.856;2022-11-12T11:03:24;25.80;39.40
15543;DHT22;7873;52.230;12.856;2022-11-12T11:05:53;25.80;39.50
15543;DHT22;7873;52.230;12.856;2022-11-12T11:08:31;25.60;39.50
15543;DHT22;7873;52.230;12.856;2022-11-12T11:13:54;25.50;40.30
15543;DHT22;7873;52.230;12.856;2022-11-12T11:16:22;25.20;40.40
15543;DHT22;7873;52.230;12.856;2022-11-12T11:18:51;25.10;40.40
15543;DHT22;7873;52.230;12.856;2022-11-12T11:21:47;25.20;40.00
15543;DHT22;7873;52.230;12.856;2022-11-12T11:24:26;25.20;39.90
15543;DHT22;7873;52.230;12.856;2022-11-12T11:27:02;25.20;39.70
15543;DHT22;7873;52.230;12.856;2022-11-12T11:29:36;25.30;39.80
15543;DHT22;7873;52.230;12.856;2022-11-12T11:32:14;25.40;40.60
15543;DHT22;7873;52.230;12.856;2022-11-12T11:34:52;25.50;41.30
15543;DHT22;7873;52.230;12.856;2022-11-12T11:37:30;25.50;41.60
15543;DHT22;7873;52.230;12.856;2022-11-12T11:40:05;25.60;42.10
15543;DHT22;7873;52.230;12.856;2022-11-12T11:42:45;25.70;42.10
15543;DHT22;7873;52.230;12.856;2022-11-12T11:45:22;25.70;42.50
15543;DHT22;7873;52.230;12.856;2022-11-12T11:47:58;25.70;42.30
15543;DHT22;7873;52.230;12.856;2022-11-12T11:50:33;25.70;42.20
15543;DHT22;7873;52.230;12.856;2022-11-12T11:53:08;25.70;42.40
15543;DHT22;7873;52.230;12.856;2022-11-12T11:55:53;25.70;42.20
15543;DHT22;7873;52.230;12.856;2022-11-12T11:58:30;25.70;42.30
15543;DHT22;7873;52.230;12.856;2022-11-12T12:01:15;25.70;42.30
15543;DHT22;7873;52.230;12.856;2022-11-12T12:03:50;25.70;42.20
15543;DHT22;7873;52.230;12.856;2022-11-12T12:06:28;25.70;42.20
15543;DHT22;7873;52.230;12.856;2022-11-12T12:09:04;25.70;42.30
15543;DHT22;7873;52.230;12.856;2022-11-12T12:11:41;25.70;42.00
15543;DHT22;7873;52.230;12.856;2022-11-12T12:14:21;25.70;41.10
15543;DHT22;7873;52.230;12.856;2022-11-12T12:17:00;25.60;40.80
15543;DHT22;7873;52.230;12.856;2022-11-12T12:19:38;25.20;41.60
15543;DHT22;7873;52.230;12.856;2022-11-12T12:22:13;25.20;41.90
15543;DHT22;7873;52.230;12.856;2022-11-12T12:24:46;25.30;41.60
15543;DHT22;7873;52.230;12.856;2022-11-12T12:27:15;25.40;41.60
15543;DHT22;7873;52.230;12.856;2022-11-12T12:29:48;25.30;41.80
15543;DHT22;7873;52.230;12.856;2022-11-12T12:32:21;25.40;41.80
15543;DHT22;7873;52.230;12.856;2022-11-12T12:34:55;25.40;41.60
15543;DHT22;7873;52.230;12.856;2022-11-12T12:37:30;25.40;41.70
15543;DHT22;7873;52.230;12.856;2022-11-12T12:40:01;25.40;41.70
15543;DHT22;7873;52.230;12.856;2022-11-12T12:42:32;25.40;41.60
15543;DHT22;7873;52.230;12.856;2022-11-12T12:45:10;25.40;41.90
15543;DHT22;7873;52.230;12.856;2022-11-12T12:47:53;25.40;41.90
15543;DHT22;7873;52.230;12.856;2022-11-12T12:50:22;25.50;41.70
15543;DHT22;7873;52.230;12.856;2022-11-12T12:53:00;25.50;41.80
15543;DHT22;7873;52.230;12.856;2022-11-12T12:55:33;25.50;42.10
15543;DHT22;7873;52.230;12.856;2022-11-12T12:58:13;25.40;42.10
15543;DHT22;7873;52.230;12.856;2022-11-12T13:00:41;25.40;42.10
15543;DHT22;7873;52.230;12.856;2022-11-12T13:03:14;25.40;42.20
15543;DHT22;7873;52.230;12.856;2022-11-12T13:06:13;25.40;42.30
15543;DHT22;7873;52.230;12.856;2022-11-12T13:08:46;25.40;42.40
15543;DHT22;7873;52.230;12.856;2022-11-12T13:17:46;25.40;42.50
15543;DHT22;7873;52.230;12.856;2022-11-12T13:20:31;25.40;42.50
15543;DHT22;7873;52.230;12.856;2022-11-12T13:22:59;25.40;42.50
15543;DHT22;7873;52.230;12.856;2022-11-12T13:25:28;25.40;42.50
15543;DHT22;7873;52.230;12.856;2022-11-12T13:28:03;25.40;42.50
15543;DHT22;7873;52.230;12.856;2022-11-12T13:33:26;25.50;42.60
15543;DHT22;7873;52.230;12.856;2022-11-12T13:38:51;25.40;42.60
15543;DHT22;7873;52.230;12.856;2022-11-12T13:41:18;25.40;42.60
15543;DHT22;7873;52.230;12.856;2022-11-12T13:44:08;25.40;42.60
15543;DHT22;7873;52.230;12.856;2022-11-12T13:46:40;25.40;42.70
15543;DHT22;7873;52.230;12.856;2022-11-12T13:49:10;25.40;42.80
15543;DHT22;7873;52.230;12.856;2022-11-12T13:51:41;25.40;42.80
15543;DHT22;7873;52.230;12.856;2022-11-12T14:00:06;25.30;42.80
15543;DHT22;7873;52.230;12.856;2022-11-12T14:02:35;25.20;42.70
15543;DHT22;7873;52.230;12.856;2022-11-12T14:05:09;25.20;43.00
15543;DHT22;7873;52.230;12.856;2022-11-12T14:07:42;25.10;42.90
15543;DHT22;7873;52.230;12.856;2022-11-12T14:10:18;25.10;43.00
15543;DHT22;7873;52.230;12.856;2022-11-12T14:13:01;25.00;43.20
15543;DHT22;7873;52.230;12.856;2022-11-12T14:15:46;25.20;42.80
15543;DHT22;7873;52.230;12.856;2022-11-12T14:18:22;25.20;42.30
15543;DHT22;7873;52.230;12.856;2022-11-12T14:20:56;25.20;42.20
15543;DHT22;7873;52.230;12.856;2022-11-12T14:23:24;25.00;40.90
15543;DHT22;7873;52.230;12.856;2022-11-12T14:25:52;24.80;41.40
15543;DHT22;7873;52.230;12.856;2022-11-12T14:28:24;24.80;41.90
15543;DHT22;7873;52.230;12.856;2022-11-12T14:30:52;24.90;41.90
15543;DHT22;7873;52.230;12.856;2022-11-12T14:33:20;24.80;42.50
15543;DHT22;7873;52.230;12.856;2022-11-12T14:35:50;24.80;42.30
15543;DHT22;7873;52.230;12.856;2022-11-12T14:38:19;24.70;42.10
15543;DHT22;7873;52.230;12.856;2022-11-12T14:40:49;24.60;42.60
15543;DHT22;7873;52.230;12.856;2022-11-12T14:43:20;24.30;43.10
15543;DHT22;7873;52.230;12.856;2022-11-12T14:45:50;24.10;43.40
15543;DHT22;7873;52.230;12.856;2022-11-12T14:48:19;24.10;43.50
15543;DHT22;7873;52.230;12.856;2022-11-12T14:50:46;24.00;43.40
15543;DHT22;7873;52.230;12.856;2022-11-12T14:53:16;24.00;43.20
15543;DHT22;7873;52.230;12.856;2022-11-12T14:55:47;24.00;43.20
15543;DHT22;7873;52.230;12.856;2022-11-12T14:58:18;23.90;43.20
15543;DHT22;7873;52.230;12.856;2022-11-12T15:00:46;23.90;43.20
15543;DHT22;7873;52.230;12.856;2022-11-12T15:03:14;23.90;43.20
15543;DHT22;7873;52.230;12.856;2022-11-12T15:05:54;23.90;43.20
15543;DHT22;7873;52.230;12.856;2022-11-12T15:08:27;23.80;43.30
15543;DHT22;7873;52.230;12.856;2022-11-12T15:10:57;23.80;43.30
15543;DHT22;7873;52.230;12.856;2022-11-12T15:13:40;23.80;43.30
15543;DHT22;7873;52.230;12.856;2022-11-12T15:16:08;23.80;43.30
15543;DHT22;7873;52.230;12.856;2022-11-12T15:18:37;23.70;43.30
15543;DHT22;7873;52.230;12.856;2022-11-12T15:21:08;23.70;43.30
15543;DHT22;7873;52.230;12.856;2022-11-12T15:23:44;23.70;44.10
15543;DHT22;7873;52.230;12.856;2022-11-12T15:26:15;23.70;43.40
15543;DHT22;7873;52.230;12.856;2022-11-12T15:28:56;23.70;43.40
15543;DHT22;7873;52.230;12.856;2022-11-12T15:31:24;23.60;43.40
15543;DHT22;7873;52.230;12.856;2022-11-12T15:33:50;23.70;43.40
15543;DHT22;7873;52.230;12.856;2022-11-12T15:36:18;23.60;43.40
15543;DHT22;7873;52.230;12.856;2022-11-12T15:38:47;23.60;43.40
15543;DHT22;7873;52.230;12.856;2022-11-12T15:41:23;23.60;43.40
15543;DHT22;7873;52.230;12.856;2022-11-12T15:43:52;23.60;43.50
15543;DHT22;7873;52.230;12.856;2022-11-12T15:46:19;23.50;43.50
15543;DHT22;7873;52.230;12.856;2022-11-12T15:48:46;23.50;43.50
15543;DHT22;7873;52.230;12.856;2022-11-12T15:51:13;23.50;43.50
15543;DHT22;7873;52.230;12.856;2022-11-12T15:53:41;23.50;43.60
15543;DHT22;7873;52.230;12.856;2022-11-12T15:56:07;23.40;43.60
15543;DHT22;7873;52.230;12.856;2022-11-12T15:58:39;23.40;43.60
15543;DHT22;7873;52.230;12.856;2022-11-12T16:01:06;23.40;43.70
15543;DHT22;7873;52.230;12.856;2022-11-12T16:03:33;23.40;43.70
15543;DHT22;7873;52.230;12.856;2022-11-12T16:05:59;23.40;43.80
15543;DHT22;7873;52.230;12.856;2022-11-12T16:08:26;23.30;43.80
15543;DHT22;7873;52.230;12.856;2022-11-12T16:10:53;23.30;43.80
15543;DHT22;7873;52.230;12.856;2022-11-12T16:13:22;23.30;43.70